sensor_id;sensor_type;location;lat;lon;timestamp;temperature;humidity
20171;DHT22;10245;51.344;6.620;2023-11-19T00:00:06;12.00;95.50
20171;DHT22;10245;51.344;6.620;2023-11-19T00:02:33;12.00;95.50
20171;DHT22;10245;51.344;6.620;2023-11-19T00:04:57;12.00;95.40
20171;DHT22;10245;51.344;6.620;2023-11-19T00:07:20;12.10;95.40
20171;DHT22;10245;51.344;6.620;2023-11-19T00:09:46;12.10;95.30
20171;DHT22;10245;51.344;6.620;2023-11-19T00:12:10;12.20;95.10
20171;DHT22;10245;51.344;6.620;2023-11-19T00:14:35;12.20;95.10
20171;DHT22;10245;51.344;6.620;2023-11-19T00:17:00;12.30;95.00
20171;DHT22;10245;51.344;6.620;2023-11-19T00:19:23;12.30;95.00
20171;DHT22;10245;51.344;6.620;2023-11-19T00:21:46;12.30;94.90
20171;DHT22;10245;51.344;6.620;2023-11-19T00:24:10;12.40;94.80
20171;DHT22;10245;51.344;6.620;2023-11-19T00:26:34;12.40;94.90
20171;DHT22;10245;51.344;6.620;2023-11-19T00:28:57;12.40;94.90
20171;DHT22;10245;51.344;6.620;2023-11-19T00:31:21;12.40;94.90
20171;DHT22;10245;51.344;6.620;2023-11-19T00:33:46;12.40;94.80
20171;DHT22;10245;51.344;6.620;2023-11-19T00:36:11;12.50;94.70
20171;DHT22;10245;51.344;6.620;2023-11-19T00:38:34;12.50;94.70
20171;DHT22;10245;51.344;6.620;2023-11-19T00:40:58;12.50;94.60
20171;DHT22;10245;51.344;6.620;2023-11-19T00:43:21;12.50;94.70
20171;DHT22;10245;51.344;6.620;2023-11-19T00:45:45;12.50;94.80
20171;DHT22;10245;51.344;6.620;2023-11-19T00:48:12;12.50;94.90
20171;DHT22;10245;51.344;6.620;2023-11-19T00:50:37;12.50;95.00
20171;DHT22;10245;51.344;6.620;2023-11-19T00:53:04;12.50;95.10
20171;DHT22;10245;51.344;6.620;2023-11-19T00:55:28;12.50;95.30
20171;DHT22;10245;51.344;6.620;2023-11-19T00:57:51;12.50;95.50
20171;DHT22;10245;51.344;6.620;2023-11-19T01:00:16;12.50;95.60
20171;DHT22;10245;51.344;6.620;2023-11-19T01:02:42;12.50;95.60
20171;DHT22;10245;51.344;6.620;2023-11-19T01:05:08;12.50;95.60
20171;DHT22;10245;51.344;6.620;2023-11-19T01:07:33;12.50;95.60
20171;DHT22;10245;51.344;6.620;2023-11-19T01:09:56;12.50;95.70
20171;DHT22;10245;51.344;6.620;2023-11-19T01:12:19;12.50;95.70
20171;DHT22;10245;51.344;6.620;2023-11-19T01:14:42;12.50;95.60
20171;DHT22;10245;51.344;6.620;2023-11-19T01:17:06;12.50;95.50
20171;DHT22;10245;51.344;6.620;2023-11-19T01:19:30;12.50;95.50
20171;DHT22;10245;51.344;6.620;2023-11-19T01:21:54;12.50;95.40
20171;DHT22;10245;51.344;6.620;2023-11-19T01:24:19;12.50;95.50
20171;DHT22;10245;51.344;6.620;2023-11-19T01:26:43;12.50;95.40
20171;DHT22;10245;51.344;6.620;2023-11-19T01:29:07;12.50;95.50
20171;DHT22;10245;51.344;6.620;2023-11-19T01:31:30;12.60;95.40
20171;DHT22;10245;51.344;6.620;2023-11-19T01:33:55;12.50;95.30
20171;DHT22;10245;51.344;6.620;2023-11-19T01:36:18;12.60;95.30
20171;DHT22;10245;51.344;6.620;2023-11-19T01:38:42;12.60;95.30
20171;DHT22;10245;51.344;6.620;2023-11-19T01:41:08;12.70;95.30
20171;DHT22;10245;51.344;6.620;2023-11-19T01:43:33;12.70;95.10
20171;DHT22;10245;51.344;6.620;2023-11-19T01:45:57;12.60;95.10
20171;DHT22;10245;51.344;6.620;2023-11-19T01:48:20;12.60;95.20
20171;DHT22;10245;51.344;6.620;2023-11-19T01:50:44;12.70;95.20
20171;DHT22;10245;51.344;6.620;2023-11-19T01:53:08;12.70;94.90
20171;DHT22;10245;51.344;6.620;2023-11-19T01:55:32;12.70;94.90
20171;DHT22;10245;51.344;6.620;2023-11-19T01:57:59;12.80;94.80
20171;DHT22;10245;51.344;6.620;2023-11-19T02:00:24;12.70;94.80
20171;DHT22;10245;51.344;6.620;2023-11-19T02:02:48;12.80;94.90
20171;DHT22;10245;51.344;6.620;2023-11-19T02:05:12;12.70;94.90
20171;DHT22;10245;51.344;6.620;2023-11-19T02:07:37;12.80;94.90
20171;DHT22;10245;51.344;6.620;2023-11-19T02:10:00;12.80;94.80
20171;DHT22;10245;51.344;6.620;2023-11-19T02:12:27;12.80;94.70
20171;DHT22;10245;51.344;6.620;2023-11-19T02:14:52;12.80;94.80
20171;DHT22;10245;51.344;6.620;2023-11-19T02:17:26;12.80;94.70
20171;DHT22;10245;51.344;6.620;2023-11-19T02:19:49;12.80;94.70
20171;DHT22;10245;51.344;6.620;2023-11-19T02:22:13;12.80;94.60
20171;DHT22;10245;51.344;6.620;2023-11-19T02:24:36;12.80;94.60
20171;DHT22;10245;51.344;6.620;2023-11-19T02:27:03;12.90;94.30
20171;DHT22;10245;51.344;6.620;2023-11-19T02:29:33;13.00;94.20
20171;DHT22;10245;51.344;6.620;2023-11-19T02:31:57;12.90;94.20
20171;DHT22;10245;51.344;6.620;2023-11-19T02:34:20;13.00;93.90
20171;DHT22;10245;51.344;6.620;2023-11-19T02:36:44;13.00;94.10
20171;DHT22;10245;51.344;6.620;2023-11-19T02:39:09;13.00;94.20
20171;DHT22;10245;51.344;6.620;2023-11-19T02:41:34;12.90;94.20
20171;DHT22;10245;51.344;6.620;2023-11-19T02:43:57;12.90;94.30
20171;DHT22;10245;51.344;6.620;2023-11-19T02:46:22;12.90;94.30
20171;DHT22;10245;51.344;6.620;2023-11-19T02:48:45;12.90;94.40
20171;DHT22;10245;51.344;6.620;2023-11-19T02:51:09;13.00;94.30
20171;DHT22;10245;51.344;6.620;2023-11-19T02:53:32;12.90;94.10
20171;DHT22;10245;51.344;6.620;2023-11-19T02:55:56;13.00;94.10
20171;DHT22;10245;51.344;6.620;2023-11-19T02:58:24;12.90;94.10
20171;DHT22;10245;51.344;6.620;2023-11-19T03:00:50;12.90;94.10
20171;DHT22;10245;51.344;6.620;2023-11-19T03:03:20;12.90;94.20
20171;DHT22;10245;51.344;6.620;2023-11-19T03:05:45;12.90;94.00
20171;DHT22;10245;51.344;6.620;2023-11-19T03:08:08;13.00;93.60
20171;DHT22;10245;51.344;6.620;2023-11-19T03:10:44;13.00;93.70
20171;DHT22;10245;51.344;6.620;2023-11-19T03:13:11;13.00;93.20
20171;DHT22;10245;51.344;6.620;2023-11-19T03:15:36;13.00;92.90
20171;DHT22;10245;51.344;6.620;2023-11-19T03:18:00;13.10;92.40
20171;DHT22;10245;51.344;6.620;2023-11-19T03:20:24;13.10;92.30
20171;DHT22;10245;51.344;6.620;2023-11-19T03:22:49;13.00;92.70
20171;DHT22;10245;51.344;6.620;2023-11-19T03:25:13;13.10;91.60
20171;DHT22;10245;51.344;6.620;2023-11-19T03:27:37;13.10;91.90
20171;DHT22;10245;51.344;6.620;2023-11-19T03:30:02;13.10;92.20
20171;DHT22;10245;51.344;6.620;2023-11-19T03:32:26;13.00;92.40
20171;DHT22;10245;51.344;6.620;2023-11-19T03:34:50;13.00;92.70
20171;DHT22;10245;51.344;6.620;2023-11-19T03:37:14;12.90;92.80
20171;DHT22;10245;51.344;6.620;2023-11-19T03:39:39;12.90;92.40
20171;DHT22;10245;51.344;6.620;2023-11-19T03:42:03;12.80;92.90
20171;DHT22;10245;51.344;6.620;2023-11-19T03:44:27;12.80;92.90
20171;DHT22;10245;51.344;6.620;2023-11-19T03:46:50;13.00;91.80
20171;DHT22;10245;51.344;6.620;2023-11-19T03:49:14;13.00;91.20
20171;DHT22;10245;51.344;6.620;2023-11-19T03:51:37;13.00;91.50
20171;DHT22;10245;51.344;6.620;2023-11-19T03:54:03;12.70;92.20
20171;DHT22;10245;51.344;6.620;2023-11-19T03:56:28;12.60;92.20
20171;DHT22;10245;51.344;6.620;2023-11-19T03:58:52;12.70;92.10
20171;DHT22;10245;51.344;6.620;2023-11-19T04:01:16;12.80;91.50
20171;DHT22;10245;51.344;6.620;2023-11-19T04:03:40;12.80;91.40
20171;DHT22;10245;51.344;6.620;2023-11-19T04:06:06;12.90;91.10
20171;DHT22;10245;51.344;6.620;2023-11-19T04:08:30;12.90;90.80
20171;DHT22;10245;51.344;6.620;2023-11-19T04:10:55;12.90;91.00
20171;DHT22;10245;51.344;6.620;2023-11-19T04:13:18;12.90;90.60
20171;DHT22;10245;51.344;6.620;2023-11-19T04:15:42;12.80;91.00
20171;DHT22;10245;51.344;6.620;2023-11-19T04:18:06;12.60;91.40
20171;DHT22;10245;51.344;6.620;2023-11-19T04:20:32;12.70;91.20
20171;DHT22;10245;51.344;6.620;2023-11-19T04:22:55;12.70;91.10
20171;DHT22;10245;51.344;6.620;2023-11-19T04:25:18;12.70;90.90
20171;DHT22;10245;51.344;6.620;2023-11-19T04:27:45;12.60;91.20
20171;DHT22;10245;51.344;6.620;2023-11-19T04:30:10;12.60;91.10
20171;DHT22;10245;51.344;6.620;2023-11-19T04:32:34;12.40;91.40
20171;DHT22;10245;51.344;6.620;2023-11-19T04:34:57;12.50;91.20
20171;DHT22;10245;51.344;6.620;2023-11-19T04:37:21;12.50;91.20
20171;DHT22;10245;51.344;6.620;2023-11-19T04:39:45;12.60;90.40
20171;DHT22;10245;51.344;6.620;2023-11-19T04:42:08;12.50;90.70
20171;DHT22;10245;51.344;6.620;2023-11-19T04:44:32;12.50;90.90
20171;DHT22;10245;51.344;6.620;2023-11-19T04:46:56;12.50;90.80
20171;DHT22;10245;51.344;6.620;2023-11-19T04:49:20;12.50;91.10
20171;DHT22;10245;51.344;6.620;2023-11-19T04:51:45;12.40;91.30
20171;DHT22;10245;51.344;6.620;2023-11-19T04:54:10;12.50;91.10
20171;DHT22;10245;51.344;6.620;2023-11-19T04:56:33;12.50;91.10
20171;DHT22;10245;51.344;6.620;2023-11-19T04:58:56;12.50;91.00
20171;DHT22;10245;51.344;6.620;2023-11-19T05:01:21;12.50;90.70
20171;DHT22;10245;51.344;6.620;2023-11-19T05:03:44;12.40;90.80
20171;DHT22;10245;51.344;6.620;2023-11-19T05:06:08;12.50;90.60
20171;DHT22;10245;51.344;6.620;2023-11-19T05:08:32;12.70;89.60
20171;DHT22;10245;51.344;6.620;2023-11-19T05:10:55;12.70;89.60
20171;DHT22;10245;51.344;6.620;2023-11-19T05:13:19;12.60;89.90
20171;DHT22;10245;51.344;6.620;2023-11-19T05:15:43;12.70;89.50
20171;DHT22;10245;51.344;6.620;2023-11-19T05:18:08;12.60;89.80
20171;DHT22;10245;51.344;6.620;2023-11-19T05:20:31;12.50;90.20
20171;DHT22;10245;51.344;6.620;2023-11-19T05:22:54;12.50;90.20
20171;DHT22;10245;51.344;6.620;2023-11-19T05:25:18;12.50;90.20
20171;DHT22;10245;51.344;6.620;2023-11-19T05:27:41;12.50;90.40
20171;DHT22;10245;51.344;6.620;2023-11-19T05:30:06;12.50;90.30
20171;DHT22;10245;51.344;6.620;2023-11-19T05:32:32;12.50;90.30
20171;DHT22;10245;51.344;6.620;2023-11-19T05:34:56;12.60;89.50
20171;DHT22;10245;51.344;6.620;2023-11-19T05:37:20;12.60;88.80
20171;DHT22;10245;51.344;6.620;2023-11-19T05:39:45;12.80;88.00
20171;DHT22;10245;51.344;6.620;2023-11-19T05:42:09;12.60;88.90
20171;DHT22;10245;51.344;6.620;2023-11-19T05:44:32;12.70;88.00
20171;DHT22;10245;51.344;6.620;2023-11-19T05:46:59;12.60;88.40
20171;DHT22;10245;51.344;6.620;2023-11-19T05:49:22;12.60;88.70
20171;DHT22;10245;51.344;6.620;2023-11-19T05:51:47;12.50;88.40
20171;DHT22;10245;51.344;6.620;2023-11-19T05:54:10;12.50;88.40
20171;DHT22;10245;51.344;6.620;2023-11-19T05:56:35;12.50;88.70
20171;DHT22;10245;51.344;6.620;2023-11-19T05:59:00;12.60;88.10
20171;DHT22;10245;51.344;6.620;2023-11-19T06:01:25;12.50;88.50
20171;DHT22;10245;51.344;6.620;2023-11-19T06:03:49;12.50;87.90
20171;DHT22;10245;51.344;6.620;2023-11-19T06:06:13;12.60;87.30
20171;DHT22;10245;51.344;6.620;2023-11-19T06:08:37;12.50;87.40
20171;DHT22;10245;51.344;6.620;2023-11-19T06:11:00;12.50;87.50
20171;DHT22;10245;51.344;6.620;2023-11-19T06:13:24;12.50;86.70
20171;DHT22;10245;51.344;6.620;2023-11-19T06:15:47;12.60;85.90
20171;DHT22;10245;51.344;6.620;2023-11-19T06:18:12;12.50;86.20
20171;DHT22;10245;51.344;6.620;2023-11-19T06:20:35;12.40;86.60
20171;DHT22;10245;51.344;6.620;2023-11-19T06:23:02;12.40;86.50
20171;DHT22;10245;51.344;6.620;2023-11-19T06:25:27;12.40;86.30
20171;DHT22;10245;51.344;6.620;2023-11-19T06:27:50;12.50;85.90
20171;DHT22;10245;51.344;6.620;2023-11-19T06:30:14;12.50;85.30
20171;DHT22;10245;51.344;6.620;2023-11-19T06:32:37;12.50;85.40
20171;DHT22;10245;51.344;6.620;2023-11-19T06:35:00;12.30;86.30
20171;DHT22;10245;51.344;6.620;2023-11-19T06:37:25;12.30;86.40
20171;DHT22;10245;51.344;6.620;2023-11-19T06:39:49;12.30;86.00
20171;DHT22;10245;51.344;6.620;2023-11-19T06:42:14;12.40;85.60
20171;DHT22;10245;51.344;6.620;2023-11-19T06:44:37;12.20;86.60
20171;DHT22;10245;51.344;6.620;2023-11-19T06:47:01;12.10;86.70
20171;DHT22;10245;51.344;6.620;2023-11-19T06:49:24;12.20;86.50
20171;DHT22;10245;51.344;6.620;2023-11-19T06:51:48;12.20;86.20
20171;DHT22;10245;51.344;6.620;2023-11-19T06:54:11;12.20;86.20
20171;DHT22;10245;51.344;6.620;2023-11-19T06:56:35;12.20;86.10
20171;DHT22;10245;51.344;6.620;2023-11-19T06:59:00;12.10;86.70
20171;DHT22;10245;51.344;6.620;2023-11-19T07:01:23;12.10;86.40
20171;DHT22;10245;51.344;6.620;2023-11-19T07:03:47;12.20;85.90
20171;DHT22;10245;51.344;6.620;2023-11-19T07:06:11;12.20;86.00
20171;DHT22;10245;51.344;6.620;2023-11-19T07:08:36;12.10;86.10
20171;DHT22;10245;51.344;6.620;2023-11-19T07:11:00;12.10;86.10
20171;DHT22;10245;51.344;6.620;2023-11-19T07:13:23;12.00;86.10
20171;DHT22;10245;51.344;6.620;2023-11-19T07:15:51;12.00;85.70
20171;DHT22;10245;51.344;6.620;2023-11-19T07:18:14;11.90;86.40
20171;DHT22;10245;51.344;6.620;2023-11-19T07:20:38;12.00;85.50
20171;DHT22;10245;51.344;6.620;2023-11-19T07:23:01;12.00;85.50
20171;DHT22;10245;51.344;6.620;2023-11-19T07:25:25;11.90;85.80
20171;DHT22;10245;51.344;6.620;2023-11-19T07:27:49;12.00;85.70
20171;DHT22;10245;51.344;6.620;2023-11-19T07:30:13;11.90;85.70
20171;DHT22;10245;51.344;6.620;2023-11-19T07:32:38;11.90;86.00
20171;DHT22;10245;51.344;6.620;2023-11-19T07:35:01;11.90;85.90
20171;DHT22;10245;51.344;6.620;2023-11-19T07:37:27;11.90;85.70
20171;DHT22;10245;51.344;6.620;2023-11-19T07:39:50;11.90;85.60
20171;DHT22;10245;51.344;6.620;2023-11-19T07:42:14;12.00;85.60
20171;DHT22;10245;51.344;6.620;2023-11-19T07:44:37;11.90;86.00
20171;DHT22;10245;51.344;6.620;2023-11-19T07:47:01;12.00;85.70
20171;DHT22;10245;51.344;6.620;2023-11-19T07:49:26;12.00;85.60
20171;DHT22;10245;51.344;6.620;2023-11-19T07:51:49;11.90;85.70
20171;DHT22;10245;51.344;6.620;2023-11-19T07:54:13;11.90;85.80
20171;DHT22;10245;51.344;6.620;2023-11-19T07:56:37;12.00;85.60
20171;DHT22;10245;51.344;6.620;2023-11-19T07:59:00;11.90;85.80
20171;DHT22;10245;51.344;6.620;2023-11-19T08:01:23;11.90;85.90
20171;DHT22;10245;51.344;6.620;2023-11-19T08:03:47;12.00;85.70
20171;DHT22;10245;51.344;6.620;2023-11-19T08:06:15;11.90;85.80
20171;DHT22;10245;51.344;6.620;2023-11-19T08:08:38;11.90;86.00
20171;DHT22;10245;51.344;6.620;2023-11-19T08:11:01;12.00;85.70
20171;DHT22;10245;51.344;6.620;2023-11-19T08:13:27;12.00;85.60
20171;DHT22;10245;51.344;6.620;2023-11-19T08:15:50;12.10;85.30
20171;DHT22;10245;51.344;6.620;2023-11-19T08:18:13;12.10;85.20
20171;DHT22;10245;51.344;6.620;2023-11-19T08:20:36;12.00;85.60
20171;DHT22;10245;51.344;6.620;2023-11-19T08:23:02;12.00;85.70
20171;DHT22;10245;51.344;6.620;2023-11-19T08:25:27;12.10;85.50
20171;DHT22;10245;51.344;6.620;2023-11-19T08:27:50;12.00;85.80
20171;DHT22;10245;51.344;6.620;2023-11-19T08:30:14;12.00;85.70
20171;DHT22;10245;51.344;6.620;2023-11-19T08:32:37;12.10;85.60
20171;DHT22;10245;51.344;6.620;2023-11-19T08:35:01;12.10;85.50
20171;DHT22;10245;51.344;6.620;2023-11-19T08:37:25;12.20;84.60
20171;DHT22;10245;51.344;6.620;2023-11-19T08:39:50;12.20;85.30
20171;DHT22;10245;51.344;6.620;2023-11-19T08:42:14;12.20;85.10
20171;DHT22;10245;51.344;6.620;2023-11-19T08:44:37;12.30;84.60
20171;DHT22;10245;51.344;6.620;2023-11-19T08:47:00;12.30;84.90
20171;DHT22;10245;51.344;6.620;2023-11-19T08:49:24;12.30;84.80
20171;DHT22;10245;51.344;6.620;2023-11-19T08:51:48;12.40;84.70
20171;DHT22;10245;51.344;6.620;2023-11-19T08:54:12;12.50;84.20
20171;DHT22;10245;51.344;6.620;2023-11-19T08:56:37;12.40;84.70
20171;DHT22;10245;51.344;6.620;2023-11-19T08:59:01;12.50;84.30
20171;DHT22;10245;51.344;6.620;2023-11-19T09:01:25;12.50;84.40
20171;DHT22;10245;51.344;6.620;2023-11-19T09:03:48;12.50;83.90
20171;DHT22;10245;51.344;6.620;2023-11-19T09:06:11;12.50;84.30
20171;DHT22;10245;51.344;6.620;2023-11-19T09:08:34;12.50;84.20
20171;DHT22;10245;51.344;6.620;2023-11-19T09:10:58;12.50;84.10
20171;DHT22;10245;51.344;6.620;2023-11-19T09:13:22;12.70;83.60
20171;DHT22;10245;51.344;6.620;2023-11-19T09:15:46;12.70;83.30
20171;DHT22;10245;51.344;6.620;2023-11-19T09:18:09;12.70;83.40
20171;DHT22;10245;51.344;6.620;2023-11-19T09:20:32;12.90;82.60
20171;DHT22;10245;51.344;6.620;2023-11-19T09:23:00;13.00;83.00
20171;DHT22;10245;51.344;6.620;2023-11-19T09:25:24;12.90;82.80
20171;DHT22;10245;51.344;6.620;2023-11-19T09:27:47;13.00;82.70
20171;DHT22;10245;51.344;6.620;2023-11-19T09:30:12;12.90;82.50
20171;DHT22;10245;51.344;6.620;2023-11-19T09:32:36;13.00;82.20
20171;DHT22;10245;51.344;6.620;2023-11-19T09:35:00;12.90;82.80
20171;DHT22;10245;51.344;6.620;2023-11-19T09:37:24;13.00;82.20
20171;DHT22;10245;51.344;6.620;2023-11-19T09:39:47;13.00;81.80
20171;DHT22;10245;51.344;6.620;2023-11-19T09:42:11;13.10;81.80
20171;DHT22;10245;51.344;6.620;2023-11-19T09:44:35;13.10;81.70
20171;DHT22;10245;51.344;6.620;2023-11-19T09:47:02;13.10;81.80
20171;DHT22;10245;51.344;6.620;2023-11-19T09:49:26;13.10;81.20
20171;DHT22;10245;51.344;6.620;2023-11-19T09:51:53;13.00;81.90
20171;DHT22;10245;51.344;6.620;2023-11-19T09:54:16;13.10;81.20
20171;DHT22;10245;51.344;6.620;2023-11-19T09:56:40;13.10;80.70
20171;DHT22;10245;51.344;6.620;2023-11-19T09:59:04;13.20;80.80
20171;DHT22;10245;51.344;6.620;2023-11-19T10:01:27;13.20;81.40
20171;DHT22;10245;51.344;6.620;2023-11-19T10:04:20;13.10;80.70
20171;DHT22;10245;51.344;6.620;2023-11-19T10:06:43;13.10;81.10
20171;DHT22;10245;51.344;6.620;2023-11-19T10:09:07;13.10;80.80
20171;DHT22;10245;51.344;6.620;2023-11-19T10:11:30;13.10;80.90
20171;DHT22;10245;51.344;6.620;2023-11-19T10:13:54;13.10;81.60
20171;DHT22;10245;51.344;6.620;2023-11-19T10:16:17;13.20;80.70
20171;DHT22;10245;51.344;6.620;2023-11-19T10:18:44;13.20;80.50
20171;DHT22;10245;51.344;6.620;2023-11-19T10:21:12;13.30;80.10
20171;DHT22;10245;51.344;6.620;2023-11-19T10:23:48;13.40;79.00
20171;DHT22;10245;51.344;6.620;2023-11-19T10:26:13;13.50;79.00
20171;DHT22;10245;51.344;6.620;2023-11-19T10:28:39;13.50;80.20
20171;DHT22;10245;51.344;6.620;2023-11-19T10:31:05;13.50;79.40
20171;DHT22;10245;51.344;6.620;2023-11-19T10:33:30;13.50;79.00
20171;DHT22;10245;51.344;6.620;2023-11-19T10:35:54;13.50;79.60
20171;DHT22;10245;51.344;6.620;2023-11-19T10:38:23;13.40;78.50
20171;DHT22;10245;51.344;6.620;2023-11-19T10:40:47;13.40;79.30
20171;DHT22;10245;51.344;6.620;2023-11-19T10:43:12;13.40;79.30
20171;DHT22;10245;51.344;6.620;2023-11-19T10:45:36;13.50;78.50
20171;DHT22;10245;51.344;6.620;2023-11-19T10:48:02;13.40;79.30
20171;DHT22;10245;51.344;6.620;2023-11-19T10:50:28;13.50;78.30
20171;DHT22;10245;51.344;6.620;2023-11-19T10:52:56;13.40;79.30
20171;DHT22;10245;51.344;6.620;2023-11-19T10:55:27;13.40;78.30
20171;DHT22;10245;51.344;6.620;2023-11-19T10:57:52;13.50;78.20
20171;DHT22;10245;51.344;6.620;2023-11-19T11:00:18;13.60;77.70
20171;DHT22;10245;51.344;6.620;2023-11-19T11:02:44;13.60;77.10
20171;DHT22;10245;51.344;6.620;2023-11-19T11:05:09;13.60;78.40
20171;DHT22;10245;51.344;6.620;2023-11-19T11:07:35;13.70;78.10
20171;DHT22;10245;51.344;6.620;2023-11-19T11:10:02;13.70;77.10
20171;DHT22;10245;51.344;6.620;2023-11-19T11:12:33;13.70;76.90
20171;DHT22;10245;51.344;6.620;2023-11-19T11:14:58;13.70;77.30
20171;DHT22;10245;51.344;6.620;2023-11-19T11:17:24;13.70;77.60
20171;DHT22;10245;51.344;6.620;2023-11-19T11:19:49;13.60;77.20
20171;DHT22;10245;51.344;6.620;2023-11-19T11:22:14;13.70;76.70
20171;DHT22;10245;51.344;6.620;2023-11-19T11:25:12;13.60;76.50
20171;DHT22;10245;51.344;6.620;2023-11-19T11:28:02;13.70;76.60
20171;DHT22;10245;51.344;6.620;2023-11-19T11:30:39;13.70;76.20
20171;DHT22;10245;51.344;6.620;2023-11-19T11:33:21;13.70;75.80
20171;DHT22;10245;51.344;6.620;2023-11-19T11:35:53;13.80;76.80
20171;DHT22;10245;51.344;6.620;2023-11-19T11:38:22;13.80;76.90
20171;DHT22;10245;51.344;6.620;2023-11-19T11:41:18;13.90;76.90
20171;DHT22;10245;51.344;6.620;2023-11-19T11:43:47;14.00;75.90
20171;DHT22;10245;51.344;6.620;2023-11-19T11:49:25;13.90;74.80
20171;DHT22;10245;51.344;6.620;2023-11-19T11:51:59;13.90;74.80
20171;DHT22;10245;51.344;6.620;2023-11-19T11:54:26;13.80;75.80
20171;DHT22;10245;51.344;6.620;2023-11-19T11:57:01;13.70;76.20
20171;DHT22;10245;51.344;6.620;2023-11-19T11:59:43;13.80;76.10
20171;DHT22;10245;51.344;6.620;2023-11-19T12:02:10;13.90;75.40
20171;DHT22;10245;51.344;6.620;2023-11-19T12:04:35;13.80;75.70
20171;DHT22;10245;51.344;6.620;2023-11-19T12:07:04;13.80;76.10
20171;DHT22;10245;51.344;6.620;2023-11-19T12:09:28;13.70;76.10
20171;DHT22;10245;51.344;6.620;2023-11-19T12:12:07;13.90;75.30
20171;DHT22;10245;51.344;6.620;2023-11-19T12:15:06;13.90;76.00
20171;DHT22;10245;51.344;6.620;2023-11-19T12:17:41;13.90;76.20
20171;DHT22;10245;51.344;6.620;2023-11-19T12:20:08;14.00;75.00
20171;DHT22;10245;51.344;6.620;2023-11-19T12:22:32;14.10;75.20
20171;DHT22;10245;51.344;6.620;2023-11-19T12:24:56;14.00;75.80
20171;DHT22;10245;51.344;6.620;2023-11-19T12:27:20;14.00;75.50
20171;DHT22;10245;51.344;6.620;2023-11-19T12:29:45;13.80;75.60
20171;DHT22;10245;51.344;6.620;2023-11-19T12:32:09;13.80;76.00
20171;DHT22;10245;51.344;6.620;2023-11-19T12:34:36;13.80;76.40
20171;DHT22;10245;51.344;6.620;2023-11-19T12:37:03;13.70;76.90
20171;DHT22;10245;51.344;6.620;2023-11-19T12:39:29;13.60;77.50
20171;DHT22;10245;51.344;6.620;2023-11-19T12:41:53;13.50;77.60
20171;DHT22;10245;51.344;6.620;2023-11-19T12:44:16;13.20;78.90
20171;DHT22;10245;51.344;6.620;2023-11-19T12:46:39;12.90;81.50
20171;DHT22;10245;51.344;6.620;2023-11-19T12:49:04;12.60;83.30
20171;DHT22;10245;51.344;6.620;2023-11-19T12:51:30;12.50;86.30
20171;DHT22;10245;51.344;6.620;2023-11-19T12:53:54;12.20;87.80
20171;DHT22;10245;51.344;6.620;2023-11-19T12:56:20;12.10;89.00
20171;DHT22;10245;51.344;6.620;2023-11-19T12:58:44;12.30;89.20
20171;DHT22;10245;51.344;6.620;2023-11-19T13:01:07;12.20;88.80
20171;DHT22;10245;51.344;6.620;2023-11-19T13:03:32;12.20;88.80
20171;DHT22;10245;51.344;6.620;2023-11-19T13:06:03;12.50;87.60
20171;DHT22;10245;51.344;6.620;2023-11-19T13:08:27;12.70;86.10
20171;DHT22;10245;51.344;6.620;2023-11-19T13:10:52;12.80;86.50
20171;DHT22;10245;51.344;6.620;2023-11-19T13:13:15;13.00;86.00
20171;DHT22;10245;51.344;6.620;2023-11-19T13:15:39;13.20;83.80
20171;DHT22;10245;51.344;6.620;2023-11-19T13:18:02;13.40;83.50
20171;DHT22;10245;51.344;6.620;2023-11-19T13:20:26;13.50;83.40
20171;DHT22;10245;51.344;6.620;2023-11-19T13:22:59;13.50;81.80
20171;DHT22;10245;51.344;6.620;2023-11-19T13:25:23;13.50;81.20
20171;DHT22;10245;51.344;6.620;2023-11-19T13:27:47;13.50;82.20
20171;DHT22;10245;51.344;6.620;2023-11-19T13:30:11;13.50;81.70
20171;DHT22;10245;51.344;6.620;2023-11-19T13:32:38;13.40;81.50
20171;DHT22;10245;51.344;6.620;2023-11-19T13:35:02;13.40;81.50
20171;DHT22;10245;51.344;6.620;2023-11-19T13:37:27;13.50;80.10
20171;DHT22;10245;51.344;6.620;2023-11-19T13:39:52;13.50;80.10
20171;DHT22;10245;51.344;6.620;2023-11-19T13:42:16;13.40;81.00
20171;DHT22;10245;51.344;6.620;2023-11-19T13:44:39;13.40;80.60
20171;DHT22;10245;51.344;6.620;2023-11-19T13:47:03;13.30;81.30
20171;DHT22;10245;51.344;6.620;2023-11-19T13:49:26;13.30;80.20
20171;DHT22;10245;51.344;6.620;2023-11-19T13:51:50;13.30;80.60
20171;DHT22;10245;51.344;6.620;2023-11-19T13:54:15;13.30;79.90
20171;DHT22;10245;51.344;6.620;2023-11-19T13:56:42;13.30;81.00
20171;DHT22;10245;51.344;6.620;2023-11-19T13:59:06;13.10;81.10
20171;DHT22;10245;51.344;6.620;2023-11-19T14:01:31;13.20;81.10
20171;DHT22;10245;51.344;6.620;2023-11-19T14:03:54;13.00;82.20
20171;DHT22;10245;51.344;6.620;2023-11-19T14:06:18;12.90;83.20
20171;DHT22;10245;51.344;6.620;2023-11-19T14:08:41;12.80;83.30
20171;DHT22;10245;51.344;6.620;2023-11-19T14:11:05;12.80;83.60
20171;DHT22;10245;51.344;6.620;2023-11-19T14:13:31;12.90;82.50
20171;DHT22;10245;51.344;6.620;2023-11-19T14:15:55;12.90;82.20
20171;DHT22;10245;51.344;6.620;2023-11-19T14:18:18;13.00;81.70
20171;DHT22;10245;51.344;6.620;2023-11-19T14:20:41;13.00;82.50
20171;DHT22;10245;51.344;6.620;2023-11-19T14:23:05;13.00;81.50
20171;DHT22;10245;51.344;6.620;2023-11-19T14:25:29;12.90;81.80
20171;DHT22;10245;51.344;6.620;2023-11-19T14:27:53;12.90;82.50
20171;DHT22;10245;51.344;6.620;2023-11-19T14:30:18;12.70;83.10
20171;DHT22;10245;51.344;6.620;2023-11-19T14:32:42;12.50;84.70
20171;DHT22;10245;51.344;6.620;2023-11-19T14:35:08;12.30;86.00
20171;DHT22;10245;51.344;6.620;2023-11-19T14:37:31;12.10;87.40
20171;DHT22;10245;51.344;6.620;2023-11-19T14:39:54;12.20;87.40
20171;DHT22;10245;51.344;6.620;2023-11-19T14:42:18;12.20;87.70
20171;DHT22;10245;51.344;6.620;2023-11-19T14:44:41;12.10;87.10
20171;DHT22;10245;51.344;6.620;2023-11-19T14:47:06;12.00;87.80
20171;DHT22;10245;51.344;6.620;2023-11-19T14:49:29;12.00;88.10
20171;DHT22;10245;51.344;6.620;2023-11-19T14:51:52;12.00;88.60
20171;DHT22;10245;51.344;6.620;2023-11-19T14:54:16;11.90;88.60
20171;DHT22;10245;51.344;6.620;2023-11-19T14:56:39;11.80;88.80
20171;DHT22;10245;51.344;6.620;2023-11-19T14:59:03;11.80;88.60
20171;DHT22;10245;51.344;6.620;2023-11-19T15:01:27;11.80;89.10
20171;DHT22;10245;51.344;6.620;2023-11-19T15:03:54;11.80;88.80
20171;DHT22;10245;51.344;6.620;2023-11-19T15:06:23;11.80;89.00
20171;DHT22;10245;51.344;6.620;2023-11-19T15:08:47;11.80;89.10
20171;DHT22;10245;51.344;6.620;2023-11-19T15:11:11;11.90;89.30
20171;DHT22;10245;51.344;6.620;2023-11-19T15:13:34;11.80;89.40
20171;DHT22;10245;51.344;6.620;2023-11-19T15:15:59;11.80;89.40
20171;DHT22;10245;51.344;6.620;2023-11-19T15:18:22;11.80;89.40